createdAt,value
2019-04-03T00:01:37.348Z,50.44
2019-04-03T00:04:07.191Z,50.83
2019-04-03T00:06:36.997Z,51.07
2019-04-03T00:09:08.043Z,50.79
2019-04-03T00:11:39.738Z,50.73
2019-04-03T00:14:12.177Z,51.19
2019-04-03T00:16:40.547Z,51.49
2019-04-03T00:19:10.421Z,51.81
2019-04-03T00:21:40.282Z,51.66
2019-04-03T00:24:09.880Z,51.99
2019-04-03T00:26:39.431Z,52.54
2019-04-03T00:29:09.165Z,52.87
2019-04-03T00:31:38.638Z,53.08
2019-04-03T00:34:08.268Z,52.87
2019-04-03T00:36:37.972Z,53.53
2019-04-03T00:39:08.556Z,53.09
2019-04-03T00:41:38.030Z,53.13
2019-04-03T00:44:07.694Z,52.84
2019-04-03T00:46:37.145Z,53.11
2019-04-03T00:49:06.860Z,52.97
2019-04-03T00:51:36.627Z,52.61
2019-04-03T00:54:06.120Z,52.04
2019-04-03T00:56:35.711Z,52.45
2019-04-03T00:59:05.302Z,52.87
2019-04-03T01:01:34.949Z,53.19
2019-04-03T01:04:04.762Z,53.45
2019-04-03T01:06:34.435Z,54.07
2019-04-03T01:09:05.507Z,54.36
2019-04-03T01:11:35.188Z,54.71
2019-04-03T01:14:05.117Z,53.72
2019-04-03T01:16:34.794Z,53.84
2019-04-03T01:19:05.723Z,53.44
2019-04-03T01:21:37.209Z,53.87
2019-04-03T01:24:08.367Z,54.35
2019-04-03T01:26:40.178Z,54.66
2019-04-03T01:29:10.595Z,54.51
2019-04-03T01:31:40.587Z,54.74
2019-04-03T01:34:10.393Z,54.66
2019-04-03T01:36:40.257Z,55.09
2019-04-03T01:39:09.665Z,55.46
2019-04-03T01:41:39.236Z,55.30
2019-04-03T01:44:08.973Z,54.68
2019-04-03T01:46:38.455Z,54.89
2019-04-03T01:49:07.835Z,55.36
2019-04-03T01:51:37.381Z,55.26
2019-04-03T01:54:07.229Z,54.73
2019-04-03T01:56:36.823Z,54.51
2019-04-03T01:59:07.329Z,55.20
2019-04-03T02:01:38.646Z,55.76
2019-04-03T02:04:08.830Z,55.81
2019-04-03T02:06:38.782Z,56.30
2019-04-03T02:09:10.726Z,55.72
2019-04-03T02:11:40.992Z,55.62
2019-04-03T02:14:10.579Z,54.88
2019-04-03T02:16:39.979Z,55.06
2019-04-03T02:19:09.653Z,55.28
2019-04-03T02:21:39.133Z,55.35
2019-04-03T02:24:08.808Z,54.79
2019-04-03T02:26:38.274Z,54.63
2019-04-03T02:29:08.729Z,55.17
2019-04-03T02:31:38.985Z,55.55
2019-04-03T02:34:08.743Z,54.91
2019-04-03T02:36:38.224Z,55.32
2019-04-03T02:39:08.446Z,55.48
2019-04-03T02:41:38.135Z,55.49
2019-04-03T02:44:07.701Z,55.49
2019-04-03T02:46:37.667Z,55.77
2019-04-03T02:49:10.208Z,55.19
2019-04-03T02:51:39.733Z,55.52
2019-04-03T02:54:18.569Z,55.42
2019-04-03T02:56:48.121Z,56.02
2019-04-03T02:59:17.749Z,56.34
2019-04-03T03:01:47.310Z,56.38
2019-04-03T03:04:20.725Z,55.88
2019-04-03T03:06:48.536Z,54.80
2019-04-03T03:09:18.130Z,54.36
2019-04-03T03:11:48.364Z,54.41
2019-04-03T03:14:18.677Z,54.43
2019-04-03T03:16:50.364Z,54.46
2019-04-03T03:19:21.766Z,54.49
2019-04-03T03:21:53.674Z,54.37
2019-04-03T03:24:23.854Z,54.24
2019-04-03T03:26:53.425Z,54.33
2019-04-03T03:29:26.398Z,54.36
2019-04-03T03:32:13.307Z,54.32
2019-04-03T03:34:48.945Z,54.37
2019-04-03T03:37:02.140Z,54.38
2019-04-03T03:39:30.809Z,54.45
2019-04-03T03:42:00.827Z,54.48
2019-04-03T03:44:31.178Z,54.63
2019-04-03T03:47:02.890Z,54.68
2019-04-03T03:49:33.296Z,54.95
2019-04-03T03:52:05.375Z,55.72
2019-04-03T03:54:35.192Z,54.76
2019-04-03T03:57:07.212Z,54.58
2019-04-03T03:59:37.209Z,54.80
2019-04-03T04:02:07.127Z,54.89
2019-04-03T04:04:36.669Z,54.40
2019-04-03T04:07:06.134Z,54.29
2019-04-03T04:09:36.174Z,54.83
2019-04-03T04:12:07.375Z,54.04
2019-04-03T04:14:38.228Z,53.96
2019-04-03T04:17:12.282Z,53.95
2019-04-03T04:19:39.423Z,53.97
2019-04-03T04:22:09.374Z,54.08
2019-04-03T04:24:38.849Z,54.17
2019-04-03T04:27:08.547Z,53.95
2019-04-03T04:29:38.137Z,53.70
2019-04-03T04:32:07.897Z,54.09
2019-04-03T04:34:37.404Z,53.79
2019-04-03T04:37:06.828Z,53.86
2019-04-03T04:39:36.583Z,53.82
2019-04-03T04:42:06.539Z,53.75
2019-04-03T04:44:36.164Z,53.85
2019-04-03T04:47:05.573Z,54.02
2019-04-03T04:49:35.296Z,53.85
2019-04-03T04:52:04.697Z,53.78
2019-04-03T04:54:34.175Z,53.61
2019-04-03T04:57:03.873Z,53.54
2019-04-03T04:59:35.845Z,53.58
2019-04-03T05:02:04.753Z,53.41
2019-04-03T05:04:34.526Z,53.19
2019-04-03T05:07:04.165Z,52.73
2019-04-03T05:09:34.896Z,52.42
2019-04-03T05:12:05.351Z,52.19
2019-04-03T05:14:34.964Z,51.78
2019-04-03T05:17:04.901Z,51.63
2019-04-03T05:19:34.939Z,51.70
2019-04-03T05:22:04.715Z,51.41
2019-04-03T05:24:34.373Z,51.56
2019-04-03T05:27:03.955Z,51.83
2019-04-03T05:29:34.763Z,51.54
2019-04-03T05:32:05.396Z,51.17
2019-04-03T05:34:34.852Z,51.82
2019-04-03T05:37:04.486Z,52.02
2019-04-03T05:39:33.985Z,51.75
2019-04-03T05:42:03.849Z,51.47
2019-04-03T05:44:33.843Z,50.87
2019-04-03T05:47:03.570Z,50.56
2019-04-03T05:49:33.442Z,50.84
2019-04-03T05:52:04.073Z,50.71
2019-04-03T05:54:34.213Z,50.88
2019-04-03T05:57:04.011Z,50.90
2019-04-03T05:59:33.841Z,50.85
2019-04-03T06:02:14.142Z,50.73
2019-04-03T06:04:34.432Z,50.22
2019-04-03T06:07:04.840Z,49.81
2019-04-03T06:09:34.948Z,49.38
2019-04-03T06:12:04.880Z,48.66
2019-04-03T06:14:34.585Z,48.39
2019-04-03T06:17:04.481Z,48.46
2019-04-03T06:19:35.206Z,48.41
2019-04-03T06:22:05.571Z,47.96
2019-04-03T06:24:35.440Z,47.62
2019-04-03T06:27:05.045Z,47.50
2019-04-03T06:29:34.762Z,47.70
2019-04-03T06:32:06.281Z,47.49
2019-04-03T06:34:38.420Z,47.51
2019-04-03T06:37:07.259Z,47.62
2019-04-03T06:39:36.815Z,46.95
2019-04-03T06:42:06.395Z,47.01
2019-04-03T06:44:36.228Z,46.77
2019-04-03T06:47:05.725Z,46.16
2019-04-03T06:49:35.141Z,46.08
2019-04-03T06:52:05.628Z,45.15
2019-04-03T06:54:35.268Z,45.96
2019-04-03T06:57:04.998Z,46.27
2019-04-03T06:59:34.421Z,47.13
2019-04-03T07:02:04.619Z,46.15
2019-04-03T07:04:34.112Z,47.06
2019-04-03T07:07:03.668Z,47.33
2019-04-03T07:09:36.479Z,45.87
2019-04-03T07:12:04.648Z,46.31
2019-04-03T07:14:34.469Z,45.52
2019-04-03T07:17:05.869Z,45.21
2019-04-03T07:19:35.595Z,44.97
2019-04-03T07:22:05.642Z,45.01
2019-04-03T07:24:35.394Z,45.06
2019-04-03T07:27:06.295Z,44.57
2019-04-03T07:29:36.298Z,44.17
2019-04-03T07:32:06.089Z,43.17
2019-04-03T07:34:36.287Z,42.56
2019-04-03T07:37:05.949Z,42.08
2019-04-03T07:39:35.459Z,41.45
2019-04-03T07:42:05.344Z,40.64
2019-04-03T07:44:35.035Z,39.94
2019-04-03T07:47:04.875Z,38.91
2019-04-03T07:49:34.812Z,37.29
2019-04-03T07:52:04.751Z,35.19
2019-04-03T07:54:34.732Z,34.17
2019-04-03T07:57:04.434Z,31.07
2019-04-03T07:59:34.756Z,28.40
2019-04-03T08:02:04.878Z,28.93
2019-04-03T08:04:34.669Z,27.38
2019-04-03T08:07:04.251Z,25.94
2019-04-03T08:09:33.878Z,24.46
2019-04-03T08:12:04.432Z,22.53
2019-04-03T08:14:34.018Z,21.28
2019-04-03T08:17:03.822Z,20.09
2019-04-03T08:19:33.429Z,19.49
2019-04-03T08:22:02.877Z,18.87
2019-04-03T08:24:32.646Z,18.58
2019-04-03T08:27:02.241Z,16.03
2019-04-03T08:29:33.716Z,16.21
2019-04-03T08:32:03.742Z,16.21
2019-04-03T08:34:33.787Z,15.92
2019-04-03T08:37:03.187Z,14.61
2019-04-03T08:39:32.906Z,15.67
2019-04-03T08:42:02.501Z,15.67
2019-04-03T08:44:32.102Z,15.87
2019-04-03T08:47:02.090Z,15.87
2019-04-03T08:49:31.849Z,14.70
2019-04-03T08:52:01.734Z,14.22
2019-04-03T08:54:31.425Z,14.18
2019-04-03T08:57:01.136Z,14.24
2019-04-03T08:59:30.901Z,14.13
2019-04-03T09:02:00.635Z,13.10
2019-04-03T09:04:30.366Z,12.67
2019-04-03T09:07:00.197Z,12.36
2019-04-03T09:09:30.558Z,11.82
2019-04-03T09:12:00.245Z,12.50
2019-04-03T09:14:29.640Z,13.44
2019-04-03T09:17:02.255Z,13.42
2019-04-03T09:19:30.465Z,12.98
2019-04-03T09:21:59.949Z,11.96
2019-04-03T09:24:30.193Z,13.01
2019-04-03T09:27:00.382Z,13.44
2019-04-03T09:29:30.094Z,13.15
2019-04-03T09:31:59.525Z,12.31
2019-04-03T09:34:30.510Z,13.00
2019-04-03T09:37:00.474Z,12.90
2019-04-03T09:39:30.173Z,12.50
2019-04-03T09:41:59.614Z,12.73
2019-04-03T09:44:29.588Z,12.09
2019-04-03T09:46:59.041Z,12.15
2019-04-03T09:49:28.427Z,12.14
2019-04-03T09:51:58.311Z,12.40
2019-04-03T09:54:28.726Z,11.83
2019-04-03T09:57:04.109Z,12.09
2019-04-03T09:59:29.343Z,11.03
2019-04-03T10:01:59.058Z,11.34
2019-04-03T10:04:28.817Z,12.06
2019-04-03T10:07:01.438Z,11.60
2019-04-03T10:09:29.859Z,11.42
2019-04-03T10:11:59.913Z,12.33
2019-04-03T10:14:29.385Z,11.21
2019-04-03T10:16:58.907Z,10.93
2019-04-03T10:19:28.702Z,10.05
2019-04-03T10:21:58.530Z,10.92
2019-04-03T10:24:28.942Z,11.16
2019-04-03T10:26:59.474Z,11.21
2019-04-03T10:29:28.993Z,11.52
2019-04-03T10:31:58.459Z,11.90
2019-04-03T10:34:28.075Z,11.25
2019-04-03T10:36:57.522Z,10.67
2019-04-03T10:39:27.203Z,12.05
2019-04-03T10:41:58.096Z,11.62
2019-04-03T10:44:27.970Z,11.14
2019-04-03T10:46:57.756Z,10.45
2019-04-03T10:49:27.438Z,11.09
2019-04-03T10:51:57.319Z,10.57
2019-04-03T10:54:27.290Z,10.31
2019-04-03T10:56:56.881Z,10.64
2019-04-03T10:59:26.279Z,11.69
2019-04-03T11:01:56.418Z,11.66
2019-04-03T11:04:26.119Z,10.74
2019-04-03T11:06:55.791Z,11.29
2019-04-03T11:09:25.194Z,11.63
2019-04-03T11:11:54.661Z,11.51
2019-04-03T11:14:24.352Z,11.81
2019-04-03T11:16:54.142Z,11.79
2019-04-03T11:19:23.569Z,11.78
2019-04-03T11:21:55.880Z,11.47
2019-04-03T11:24:24.680Z,10.66
2019-04-03T11:26:54.445Z,11.08
2019-04-03T11:29:24.414Z,11.26
2019-04-03T11:31:54.034Z,10.16
2019-04-03T11:34:23.740Z,10.60
2019-04-03T11:36:53.178Z,10.46
2019-04-03T11:39:23.183Z,10.49
2019-04-03T11:41:54.549Z,10.65
2019-04-03T11:44:24.350Z,11.10
2019-04-03T11:46:53.961Z,11.12
2019-04-03T11:49:23.766Z,11.29
2019-04-03T11:51:53.343Z,11.11
2019-04-03T11:54:22.957Z,10.75
2019-04-03T11:56:52.682Z,10.75
2019-04-03T11:59:23.998Z,11.40
2019-04-03T12:01:53.344Z,11.39
2019-04-03T12:04:22.746Z,11.59
2019-04-03T12:06:53.228Z,11.04
2019-04-03T12:09:22.964Z,10.42
2019-04-03T12:11:54.522Z,10.13
2019-04-03T12:14:24.861Z,9.62
2019-04-03T12:16:57.059Z,9.62
2019-04-03T12:19:26.075Z,10.41
2019-04-03T12:21:55.669Z,10.47
2019-04-03T12:24:25.153Z,10.19
2019-04-03T12:26:55.466Z,10.23
2019-04-03T12:29:25.915Z,11.54
2019-04-03T12:31:55.420Z,12.64
2019-04-03T12:34:25.110Z,13.60
2019-04-03T12:36:54.880Z,13.94
2019-04-03T12:39:28.362Z,13.26
2019-04-03T12:41:58.586Z,13.54
2019-04-03T12:44:28.083Z,13.46
2019-04-03T12:46:57.978Z,13.63
2019-04-03T12:49:28.015Z,14.09
2019-04-03T12:51:57.924Z,14.20
2019-04-03T12:54:27.947Z,13.73
2019-04-03T12:57:00.300Z,12.99
2019-04-03T12:59:29.271Z,12.77
2019-04-03T13:01:58.850Z,12.77
2019-04-03T13:04:31.031Z,12.83
2019-04-03T13:06:59.917Z,13.27
2019-04-03T13:09:29.771Z,13.52
2019-04-03T13:11:59.367Z,13.97
2019-04-03T13:14:30.199Z,14.16
2019-04-03T13:17:00.600Z,14.68
2019-04-03T13:19:30.754Z,15.28
2019-04-03T13:22:00.419Z,15.04
2019-04-03T13:24:30.344Z,14.91
2019-04-03T13:27:00.040Z,14.64
2019-04-03T13:29:29.768Z,15.32
2019-04-03T13:31:59.618Z,15.92
2019-04-03T13:34:31.241Z,15.09
2019-04-03T13:37:00.916Z,14.57
2019-04-03T13:39:32.552Z,14.76
2019-04-03T13:42:02.154Z,15.45
2019-04-03T13:44:31.936Z,16.26
2019-04-03T13:47:01.600Z,16.59
2019-04-03T13:49:31.483Z,17.12
2019-04-03T13:52:05.513Z,17.82
2019-04-03T13:54:32.589Z,18.14
2019-04-03T13:57:02.253Z,18.30
2019-04-03T13:59:31.908Z,19.48
2019-04-03T14:02:02.062Z,19.51
2019-04-03T14:04:31.780Z,20.09
2019-04-03T14:07:03.443Z,20.54
2019-04-03T14:09:32.875Z,21.49
2019-04-03T14:12:05.223Z,21.60
2019-04-03T14:14:34.219Z,21.90
2019-04-03T14:17:06.068Z,22.03
2019-04-03T14:19:43.590Z,22.28
2019-04-03T14:22:06.706Z,22.23
2019-04-03T14:24:43.773Z,21.70
2019-04-03T14:27:20.833Z,22.37
2019-04-03T14:29:39.695Z,22.67
2019-04-03T14:32:09.214Z,22.52
2019-04-03T14:34:40.269Z,21.85
2019-04-03T14:37:10.860Z,22.73
2019-04-03T14:39:41.480Z,23.40
2019-04-03T14:42:11.365Z,23.02
2019-04-03T14:44:42.273Z,23.40
2019-04-03T14:47:12.377Z,23.18
2019-04-03T14:49:42.160Z,23.35
2019-04-03T14:52:12.027Z,23.32
2019-04-03T14:54:41.735Z,23.86
2019-04-03T14:57:19.269Z,23.66
2019-04-03T14:59:43.132Z,23.82
2019-04-03T15:02:12.705Z,23.66
2019-04-03T15:04:42.421Z,24.12
2019-04-03T15:07:12.147Z,23.80
2019-04-03T15:09:42.021Z,24.84
2019-04-03T15:12:12.544Z,24.72
2019-04-03T15:14:42.823Z,24.72
2019-04-03T15:17:12.884Z,24.70
2019-04-03T15:19:44.529Z,24.94
2019-04-03T15:22:13.623Z,25.24
2019-04-03T15:24:44.469Z,25.19
2019-04-03T15:27:14.848Z,25.45
2019-04-03T15:29:45.237Z,25.81
2019-04-03T15:32:17.645Z,25.56
2019-04-03T15:34:46.656Z,25.76
2019-04-03T15:37:16.174Z,25.77
2019-04-03T15:39:50.279Z,26.12
2019-04-03T15:42:17.034Z,25.89
2019-04-03T15:44:46.685Z,26.44
2019-04-03T15:47:18.891Z,26.60
2019-04-03T15:49:47.844Z,26.69
2019-04-03T15:52:17.306Z,26.38
2019-04-03T15:54:47.114Z,26.94
2019-04-03T15:57:18.809Z,26.47
2019-04-03T15:59:48.437Z,26.95
2019-04-03T16:02:18.037Z,27.28
2019-04-03T16:04:47.862Z,27.13
2019-04-03T16:07:17.343Z,27.16
2019-04-03T16:09:49.631Z,27.15
2019-04-03T16:12:18.096Z,27.14
2019-04-03T16:14:50.161Z,27.41
2019-04-03T16:17:19.037Z,27.42
2019-04-03T16:19:49.065Z,27.86
2019-04-03T16:22:19.361Z,27.84
2019-04-03T16:24:49.269Z,27.91
2019-04-03T16:27:19.470Z,28.12
2019-04-03T16:29:49.200Z,27.83
2019-04-03T16:32:18.689Z,27.91
2019-04-03T16:34:48.525Z,28.16
2019-04-03T16:37:20.457Z,28.44
2019-04-03T16:39:50.354Z,28.68
2019-04-03T16:42:20.278Z,29.04
2019-04-03T16:44:50.544Z,29.25
2019-04-03T16:47:20.807Z,29.48
2019-04-03T16:49:51.987Z,29.61
2019-04-03T16:52:22.153Z,29.70
2019-04-03T16:54:52.071Z,30.09
2019-04-03T16:57:22.746Z,29.80
2019-04-03T16:59:52.428Z,29.84
2019-04-03T17:02:25.229Z,29.92
2019-04-03T17:04:53.400Z,30.16
2019-04-03T17:07:23.152Z,30.25
2019-04-03T17:09:53.048Z,30.52
2019-04-03T17:12:23.198Z,30.17
2019-04-03T17:14:54.984Z,30.24
2019-04-03T17:17:25.800Z,30.28
2019-04-03T17:19:55.801Z,30.46
2019-04-03T17:22:26.080Z,30.07
2019-04-03T17:24:56.524Z,30.39
2019-04-03T17:27:29.671Z,30.49
2019-04-03T17:29:57.729Z,30.32
2019-04-03T17:32:29.900Z,30.57
2019-04-03T17:34:59.169Z,30.46
2019-04-03T17:37:30.275Z,30.82
2019-04-03T17:40:00.788Z,30.86
2019-04-03T17:42:30.729Z,31.38
2019-04-03T17:45:00.592Z,31.63
2019-04-03T17:47:31.295Z,31.67
2019-04-03T17:50:01.013Z,31.93
2019-04-03T17:52:32.016Z,32.38
2019-04-03T17:55:01.769Z,32.20
2019-04-03T17:57:31.205Z,32.24
2019-04-03T18:00:00.855Z,32.47
2019-04-03T18:02:30.676Z,32.46
2019-04-03T18:05:00.451Z,32.96
2019-04-03T18:07:29.980Z,32.91
2019-04-03T18:09:59.475Z,33.11
2019-04-03T18:12:28.943Z,32.95
2019-04-03T18:15:00.631Z,33.32
2019-04-03T18:17:31.711Z,33.50
2019-04-03T18:20:01.532Z,33.54
2019-04-03T18:22:31.693Z,33.71
2019-04-03T18:25:01.304Z,33.90
2019-04-03T18:27:33.297Z,34.37
2019-04-03T18:30:03.420Z,34.19
2019-04-03T18:32:33.123Z,34.52
2019-04-03T18:35:02.741Z,34.45
2019-04-03T18:37:34.453Z,34.70
2019-04-03T18:40:05.284Z,35.07
2019-04-03T18:42:37.527Z,35.14
2019-04-03T18:45:08.227Z,35.30
2019-04-03T18:47:45.799Z,35.75
2019-04-03T18:50:15.271Z,36.37
2019-04-03T18:52:44.827Z,36.70
2019-04-03T18:55:14.870Z,36.97
2019-04-03T18:57:44.318Z,37.64
2019-04-03T19:00:14.432Z,37.80
2019-04-03T19:02:44.339Z,38.07
2019-04-03T19:05:14.493Z,38.32
2019-04-03T19:07:45.942Z,38.66
2019-04-03T19:10:18.323Z,39.00
2019-04-03T19:12:49.157Z,39.06
2019-04-03T19:15:18.694Z,39.37
2019-04-03T19:17:59.387Z,39.19
2019-04-03T19:20:20.065Z,39.58
2019-04-03T19:23:01.576Z,40.10
2019-04-03T19:25:20.805Z,39.98
2019-04-03T19:27:50.997Z,40.06
2019-04-03T19:30:21.070Z,40.15
2019-04-03T19:32:50.571Z,40.25
2019-04-03T19:35:19.991Z,40.46
2019-04-03T19:37:49.775Z,40.60
2019-04-03T19:40:19.649Z,41.05
2019-04-03T19:42:49.744Z,41.33
2019-04-03T19:45:21.417Z,41.33
2019-04-03T19:47:51.083Z,41.32
2019-04-03T19:50:20.971Z,41.37
2019-04-03T19:52:50.438Z,41.49
2019-04-03T19:55:23.193Z,41.89
2019-04-03T19:57:51.541Z,41.88
2019-04-03T20:00:21.487Z,41.96
2019-04-03T20:02:51.212Z,41.94
2019-04-03T20:05:20.996Z,42.23
2019-04-03T20:07:50.639Z,42.08
2019-04-03T20:10:20.078Z,42.09
2019-04-03T20:12:49.516Z,42.54
2019-04-03T20:15:22.503Z,42.33
2019-04-03T20:17:50.685Z,42.73
2019-04-03T20:20:20.292Z,42.81
2019-04-03T20:22:49.927Z,42.70
2019-04-03T20:25:19.404Z,43.08
2019-04-03T20:27:51.338Z,43.39
2019-04-03T20:30:20.252Z,43.60
2019-04-03T20:32:49.693Z,43.58
2019-04-03T20:35:19.387Z,43.87
2019-04-03T20:37:48.822Z,44.08
2019-04-03T20:40:18.212Z,44.36
2019-04-03T20:42:47.690Z,44.52
2019-04-03T20:45:19.069Z,44.64
2019-04-03T20:47:48.616Z,44.84
2019-04-03T20:50:18.413Z,45.29
2019-04-03T20:52:48.044Z,45.11
2019-04-03T20:55:17.654Z,45.08
2019-04-03T20:57:55.549Z,45.20
2019-04-03T21:00:20.157Z,45.27
2019-04-03T21:02:49.574Z,45.36
2019-04-03T21:05:19.294Z,45.48
2019-04-03T21:07:49.028Z,45.71
2019-04-03T21:10:20.771Z,45.93
2019-04-03T21:12:50.549Z,46.04
2019-04-03T21:15:20.211Z,46.11
2019-04-03T21:17:50.540Z,46.33
2019-04-03T21:20:21.920Z,46.53
2019-04-03T21:22:51.494Z,46.72
2019-04-03T21:25:20.879Z,46.79
2019-04-03T21:27:50.445Z,46.92
2019-04-03T21:30:19.880Z,46.94
2019-04-03T21:32:49.319Z,47.04
2019-04-03T21:35:19.113Z,47.13
2019-04-03T21:37:48.746Z,47.35
2019-04-03T21:40:18.134Z,47.61
2019-04-03T21:42:47.577Z,47.80
2019-04-03T21:45:17.334Z,47.80
2019-04-03T21:47:47.069Z,48.18
2019-04-03T21:50:19.021Z,47.99
2019-04-03T21:52:47.866Z,48.08
2019-04-03T21:55:17.745Z,48.23
2019-04-03T21:57:47.325Z,48.64
2019-04-03T22:00:23.220Z,48.15
2019-04-03T22:02:52.825Z,48.36
2019-04-03T22:05:23.036Z,48.48
2019-04-03T22:07:53.603Z,48.47
2019-04-03T22:10:23.180Z,48.79
2019-04-03T22:12:52.769Z,49.07
2019-04-03T22:15:22.248Z,49.05
2019-04-03T22:17:52.612Z,49.12
2019-04-03T22:20:22.835Z,49.29
2019-04-03T22:22:52.254Z,49.52
2019-04-03T22:25:21.954Z,49.64
2019-04-03T22:27:51.594Z,49.39
2019-04-03T22:30:21.788Z,49.38
2019-04-03T22:32:51.685Z,49.75
2019-04-03T22:35:21.261Z,50.09
2019-04-03T22:37:50.849Z,50.40
2019-04-03T22:40:20.435Z,50.65
2019-04-03T22:42:50.287Z,50.82
2019-04-03T22:45:20.200Z,50.65
2019-04-03T22:47:50.261Z,49.93
2019-04-03T22:50:20.053Z,50.16
2019-04-03T22:52:49.848Z,51.30
2019-04-03T22:55:19.341Z,50.96
2019-04-03T22:57:50.402Z,51.03
2019-04-03T23:00:20.243Z,51.05
2019-04-03T23:02:49.727Z,50.71
2019-04-03T23:05:19.306Z,50.98
2019-04-03T23:07:51.677Z,50.91
2019-04-03T23:10:20.257Z,51.17
2019-04-03T23:12:49.838Z,51.14
2019-04-03T23:15:19.480Z,50.99
2019-04-03T23:17:49.181Z,50.66
2019-04-03T23:20:20.100Z,50.43
2019-04-03T23:22:50.622Z,50.23
2019-04-03T23:25:20.326Z,50.32
2019-04-03T23:27:50.196Z,50.51
2019-04-03T23:30:19.795Z,50.83
2019-04-03T23:32:49.777Z,50.83
2019-04-03T23:35:20.510Z,51.13
2019-04-03T23:37:50.733Z,50.89
2019-04-03T23:40:20.568Z,50.77
2019-04-03T23:42:50.353Z,50.70
2019-04-03T23:45:20.955Z,51.18
2019-04-03T23:47:50.665Z,51.30
2019-04-03T23:50:22.010Z,51.30
2019-04-03T23:52:51.800Z,51.08
2019-04-03T23:55:21.355Z,51.32
2019-04-03T23:57:50.871Z,51.20
